createdAt,value
2019-06-27T00:02:19.046Z,43.00
2019-06-27T00:04:49.811Z,27.63
2019-06-27T00:07:20.536Z,20.87
2019-06-27T00:09:50.801Z,5.60
2019-06-27T00:12:20.954Z,7.90
2019-06-27T00:14:51.146Z,9.33
2019-06-27T00:17:21.499Z,7.73
2019-06-27T00:19:51.806Z,9.77
2019-06-27T00:22:22.017Z,33.90
2019-06-27T00:24:52.258Z,10.83
2019-06-27T00:27:22.431Z,7.43
2019-06-27T00:29:52.692Z,3.80
2019-06-27T00:32:23.252Z,51.20
2019-06-27T00:34:53.496Z,24.87
2019-06-27T00:37:24.038Z,22.83
2019-06-27T00:39:54.438Z,37.30
2019-06-27T00:42:24.661Z,26.20
2019-06-27T00:44:55.295Z,35.53
2019-06-27T00:47:25.402Z,14.43
2019-06-27T00:49:56.049Z,22.90
2019-06-27T00:52:26.322Z,13.33
2019-06-27T00:54:57.221Z,33.70
2019-06-27T00:57:28.003Z,28.60
2019-06-27T00:59:58.514Z,37.73
2019-06-27T01:02:29.337Z,34.77
2019-06-27T01:04:59.618Z,42.87
2019-06-27T01:07:30.045Z,43.30
2019-06-27T01:10:01.365Z,42.53
2019-06-27T01:12:36.041Z,22.53
2019-06-27T01:15:07.046Z,24.00
2019-06-27T01:17:37.308Z,37.07
2019-06-27T01:20:09.063Z,39.63
2019-06-27T01:22:39.454Z,25.83
2019-06-27T01:25:10.366Z,29.53
2019-06-27T01:27:40.682Z,20.57
2019-06-27T01:30:11.600Z,18.13
2019-06-27T01:32:42.680Z,23.60
2019-06-27T01:35:13.429Z,20.73
2019-06-27T01:37:43.958Z,24.90
2019-06-27T01:40:14.701Z,33.73
2019-06-27T01:42:45.071Z,29.70
2019-06-27T01:45:27.510Z,28.40
2019-06-27T01:47:58.062Z,27.07
2019-06-27T01:50:28.356Z,16.60
2019-06-27T01:52:58.913Z,19.53
2019-06-27T01:55:29.366Z,34.27
2019-06-27T01:58:00.174Z,22.97
2019-06-27T02:00:31.503Z,31.47
2019-06-27T02:03:02.634Z,25.73
2019-06-27T02:05:33.083Z,26.30
2019-06-27T02:08:03.545Z,22.50
2019-06-27T02:10:35.091Z,21.23
2019-06-27T02:13:05.454Z,19.00
2019-06-27T02:15:36.214Z,20.97
2019-06-27T02:18:07.329Z,32.73
2019-06-27T02:20:37.596Z,33.57
2019-06-27T02:23:08.074Z,21.20
2019-06-27T02:25:39.448Z,41.23
2019-06-27T02:28:10.286Z,22.73
2019-06-27T02:30:43.610Z,14.83
2019-06-27T02:33:14.407Z,17.80
2019-06-27T02:35:44.865Z,19.23
2019-06-27T02:38:15.171Z,13.60
2019-06-27T02:40:45.662Z,15.23
2019-06-27T02:43:17.039Z,10.57
2019-06-27T02:45:47.431Z,17.57
2019-06-27T02:48:18.226Z,6.73
2019-06-27T02:50:48.744Z,9.77
2019-06-27T02:53:19.540Z,8.97
2019-06-27T02:55:50.170Z,9.00
2019-06-27T02:58:31.337Z,11.63
2019-06-27T03:00:53.427Z,7.37
2019-06-27T03:03:23.663Z,8.30
2019-06-27T03:05:53.956Z,9.27
2019-06-27T03:08:24.475Z,6.17
2019-06-27T03:10:55.010Z,7.60
2019-06-27T03:13:25.897Z,9.30
2019-06-27T03:15:56.415Z,7.83
2019-06-27T03:18:27.218Z,9.20
2019-06-27T03:20:57.981Z,7.23
2019-06-27T03:23:28.645Z,5.27
2019-06-27T03:25:58.968Z,3.47
2019-06-27T03:28:49.751Z,9.17
2019-06-27T03:31:01.728Z,7.90
2019-06-27T03:33:32.627Z,9.30
2019-06-27T03:36:03.362Z,17.03
2019-06-27T03:38:33.593Z,8.07
2019-06-27T03:41:04.482Z,8.33
2019-06-27T03:43:35.781Z,14.53
2019-06-27T03:46:07.110Z,17.33
2019-06-27T03:48:38.914Z,12.93
2019-06-27T03:51:10.212Z,2.90
2019-06-27T03:53:40.424Z,2.70
2019-06-27T03:56:10.907Z,6.23
2019-06-27T03:58:41.298Z,4.30
2019-06-27T04:01:11.755Z,12.87
2019-06-27T04:03:43.213Z,11.60
2019-06-27T04:06:13.790Z,47.40
2019-06-27T04:08:43.966Z,33.85
2019-06-27T04:11:14.795Z,5.30
2019-06-27T04:13:45.250Z,29.43
2019-06-27T04:16:15.516Z,124.03
2019-06-27T04:18:46.902Z,48.07
2019-06-27T04:21:18.091Z,185.83
2019-06-27T04:23:48.785Z,29.90
2019-06-27T04:26:18.930Z,177.00
2019-06-27T04:28:49.323Z,28.40
2019-06-27T04:31:19.362Z,434.77
2019-06-27T04:33:49.619Z,339.37
2019-06-27T04:36:19.956Z,254.57
2019-06-27T04:38:51.318Z,380.23
2019-06-27T04:41:21.963Z,400.00
2019-06-27T04:43:52.763Z,187.97
2019-06-27T04:46:23.506Z,391.13
2019-06-27T04:48:53.894Z,284.87
2019-06-27T04:51:24.291Z,301.97
2019-06-27T04:53:55.078Z,226.47
2019-06-27T04:56:25.486Z,290.83
2019-06-27T04:58:55.862Z,108.87
2019-06-27T05:01:45.314Z,233.43
2019-06-27T05:04:15.990Z,190.10
2019-06-27T05:06:47.372Z,157.03
2019-06-27T05:09:17.801Z,108.57
2019-06-27T05:11:48.134Z,202.83
2019-06-27T05:14:18.301Z,180.73
2019-06-27T05:16:48.634Z,154.40
2019-06-27T05:19:18.916Z,190.30
2019-06-27T05:21:49.409Z,315.37
2019-06-27T05:24:20.506Z,158.73
2019-06-27T05:26:51.870Z,277.67
2019-06-27T05:29:22.486Z,174.27
2019-06-27T05:31:53.643Z,258.53
2019-06-27T05:34:24.338Z,162.70
2019-06-27T05:36:55.365Z,213.53
2019-06-27T05:39:26.364Z,339.37
2019-06-27T05:41:56.649Z,144.97
2019-06-27T05:44:27.016Z,42.47
2019-06-27T05:46:58.020Z,195.13
2019-06-27T05:49:28.258Z,125.20
2019-06-27T05:51:58.995Z,461.60
2019-06-27T05:54:29.554Z,161.80
2019-06-27T05:57:00.054Z,55.30
2019-06-27T05:59:30.814Z,53.30
2019-06-27T06:02:00.945Z,22.77
2019-06-27T06:04:31.085Z,43.70
2019-06-27T06:07:01.329Z,33.53
2019-06-27T06:09:33.030Z,38.03
2019-06-27T06:12:03.405Z,31.97
2019-06-27T06:14:33.699Z,20.20
2019-06-27T06:17:03.839Z,45.73
2019-06-27T06:19:34.033Z,41.50
2019-06-27T06:22:04.201Z,64.00
2019-06-27T06:24:34.377Z,76.37
2019-06-27T06:27:04.633Z,60.20
2019-06-27T06:29:35.042Z,41.80
2019-06-27T06:32:05.737Z,89.57
2019-06-27T06:34:36.837Z,62.53
2019-06-27T06:37:08.243Z,83.37
2019-06-27T06:39:39.449Z,60.67
2019-06-27T06:42:11.244Z,49.60
2019-06-27T06:44:44.776Z,68.97
2019-06-27T06:47:20.093Z,42.87
2019-06-27T06:50:06.516Z,58.67
2019-06-27T06:52:37.975Z,46.83
2019-06-27T06:55:09.058Z,54.17
2019-06-27T06:57:39.786Z,65.43
2019-06-27T07:00:10.540Z,57.70
2019-06-27T07:02:41.919Z,54.60
2019-06-27T07:05:12.521Z,32.77
2019-06-27T07:07:42.904Z,40.93
2019-06-27T07:10:13.451Z,36.47
2019-06-27T07:12:43.741Z,37.43
2019-06-27T07:15:14.799Z,41.43
2019-06-27T07:17:45.526Z,22.30
2019-06-27T07:20:16.380Z,26.77
2019-06-27T07:22:46.869Z,27.33
2019-06-27T07:25:18.609Z,25.37
2019-06-27T07:27:50.250Z,22.03
2019-06-27T07:30:21.256Z,42.17
2019-06-27T07:32:52.987Z,21.63
2019-06-27T07:35:23.604Z,35.13
2019-06-27T07:37:55.163Z,21.10
2019-06-27T07:40:26.111Z,31.00
2019-06-27T07:42:56.647Z,30.90
2019-06-27T07:45:27.396Z,31.40
2019-06-27T07:47:58.051Z,21.50
2019-06-27T07:50:28.336Z,28.03
2019-06-27T07:53:11.011Z,33.97
2019-06-27T07:55:42.291Z,30.63
2019-06-27T07:58:13.249Z,38.70
2019-06-27T08:00:44.507Z,33.37
2019-06-27T08:03:16.204Z,37.05
2019-06-27T08:05:48.062Z,35.50
2019-06-27T08:08:18.530Z,39.78
2019-06-27T08:10:49.173Z,40.05
2019-06-27T08:13:20.240Z,30.40
2019-06-27T08:15:51.467Z,41.23
2019-06-27T08:18:28.291Z,31.52
2019-06-27T08:20:57.645Z,41.65
2019-06-27T08:23:41.190Z,22.30
2019-06-27T08:26:00.734Z,36.40
2019-06-27T08:28:34.573Z,70.83
2019-06-27T08:31:04.814Z,25.15
2019-06-27T08:33:34.975Z,27.05
2019-06-27T08:36:06.673Z,27.87
2019-06-27T08:38:37.042Z,27.70
2019-06-27T08:41:07.344Z,30.40
2019-06-27T08:43:37.721Z,25.02
2019-06-27T08:46:07.980Z,12.35
2019-06-27T08:48:38.427Z,15.38
2019-06-27T08:51:08.852Z,14.25
2019-06-27T08:53:42.966Z,14.07
2019-06-27T08:56:13.405Z,7.83
2019-06-27T08:58:44.043Z,13.43
2019-06-27T09:01:14.357Z,12.68
2019-06-27T09:03:44.505Z,11.80
2019-06-27T09:06:16.821Z,8.45
2019-06-27T09:08:47.588Z,13.40
2019-06-27T09:11:17.909Z,10.38
2019-06-27T09:13:48.147Z,13.22
2019-06-27T09:16:18.381Z,18.95
2019-06-27T09:18:48.897Z,20.95
2019-06-27T09:21:19.175Z,12.47
2019-06-27T09:23:50.306Z,9.68
2019-06-27T09:26:21.944Z,15.32
2019-06-27T09:28:52.820Z,10.50
2019-06-27T09:31:24.010Z,17.25
2019-06-27T09:33:54.562Z,13.62
2019-06-27T09:36:25.121Z,16.87
2019-06-27T09:38:55.658Z,15.55
2019-06-27T09:41:27.246Z,12.80
2019-06-27T09:43:57.442Z,7.37
2019-06-27T09:46:27.577Z,22.50
2019-06-27T09:48:58.164Z,7.72
2019-06-27T09:51:28.921Z,17.20
2019-06-27T09:54:00.020Z,9.90
2019-06-27T09:56:30.952Z,14.90
2019-06-27T09:59:01.209Z,12.55
2019-06-27T10:01:31.917Z,10.50
2019-06-27T10:04:02.226Z,18.50
2019-06-27T10:06:32.470Z,10.00
2019-06-27T10:09:03.356Z,8.25
2019-06-27T10:11:33.821Z,9.50
2019-06-27T10:14:05.173Z,32.80
2019-06-27T10:16:35.484Z,10.98
2019-06-27T10:19:05.905Z,10.25
2019-06-27T10:21:36.071Z,24.15
2019-06-27T10:24:06.463Z,9.98
2019-06-27T10:26:36.785Z,5.70
2019-06-27T10:29:07.471Z,7.45
2019-06-27T10:31:38.180Z,9.55
2019-06-27T10:34:08.515Z,10.93
2019-06-27T10:36:39.768Z,11.65
2019-06-27T10:39:10.314Z,12.68
2019-06-27T10:41:40.552Z,7.00
2019-06-27T10:44:10.817Z,8.08
2019-06-27T10:46:41.267Z,7.47
2019-06-27T10:49:12.001Z,7.75
2019-06-27T10:51:42.295Z,8.30
2019-06-27T10:54:12.590Z,7.28
2019-06-27T10:56:43.316Z,12.47
2019-06-27T10:59:13.780Z,10.05
2019-06-27T11:01:44.432Z,8.40
2019-06-27T11:04:15.327Z,12.10
2019-06-27T11:06:45.417Z,9.23
2019-06-27T11:09:16.010Z,10.13
2019-06-27T11:11:46.639Z,10.13
2019-06-27T11:14:19.171Z,15.15
2019-06-27T11:16:49.363Z,11.85
2019-06-27T11:19:19.669Z,10.60
2019-06-27T11:21:49.836Z,10.98
2019-06-27T11:24:20.297Z,7.65
2019-06-27T11:26:51.059Z,12.30
2019-06-27T11:29:21.511Z,26.62
2019-06-27T11:31:51.856Z,8.40
2019-06-27T11:34:22.089Z,6.28
2019-06-27T11:36:52.257Z,8.38
2019-06-27T11:39:23.474Z,7.97
2019-06-27T11:41:54.093Z,26.23
2019-06-27T11:44:24.770Z,11.30
2019-06-27T11:46:55.148Z,7.72
2019-06-27T11:49:25.775Z,12.05
2019-06-27T11:51:56.277Z,9.93
2019-06-27T11:54:26.564Z,8.58
2019-06-27T11:56:56.792Z,7.80
2019-06-27T11:59:27.048Z,12.90
2019-06-27T12:01:57.261Z,7.28
2019-06-27T12:04:27.479Z,15.70
2019-06-27T12:06:58.701Z,9.08
2019-06-27T12:09:28.936Z,8.10
2019-06-27T12:11:59.252Z,12.20
2019-06-27T12:14:29.409Z,16.37
2019-06-27T12:16:59.617Z,11.45
2019-06-27T12:19:29.668Z,11.63
2019-06-27T12:22:00.463Z,10.48
2019-06-27T12:24:30.877Z,9.80
2019-06-27T12:27:01.192Z,4.90
2019-06-27T12:29:31.434Z,10.23
2019-06-27T12:32:01.722Z,12.20
2019-06-27T12:34:31.969Z,9.03
2019-06-27T12:37:02.375Z,12.75
2019-06-27T12:39:34.158Z,11.80
2019-06-27T12:42:05.617Z,10.75
2019-06-27T12:44:36.416Z,7.30
2019-06-27T12:47:06.821Z,5.70
2019-06-27T12:49:57.025Z,15.65
2019-06-27T12:52:09.956Z,12.60
2019-06-27T12:54:40.642Z,11.83
2019-06-27T12:57:11.367Z,9.40
2019-06-27T12:59:42.449Z,14.60
2019-06-27T13:02:13.291Z,9.45
2019-06-27T13:04:44.445Z,12.80
2019-06-27T13:07:15.918Z,9.38
2019-06-27T13:09:46.022Z,4.60
2019-06-27T13:12:16.261Z,9.40
2019-06-27T13:14:47.617Z,5.40
2019-06-27T13:17:18.476Z,8.63
2019-06-27T13:19:49.438Z,5.08
2019-06-27T13:22:19.892Z,7.05
2019-06-27T13:24:50.064Z,5.30
2019-06-27T13:27:20.232Z,5.40
2019-06-27T13:29:50.678Z,11.25
2019-06-27T13:32:25.353Z,3.20
2019-06-27T13:34:54.825Z,15.20
2019-06-27T13:37:25.492Z,4.53
2019-06-27T13:39:55.780Z,10.00
2019-06-27T13:42:29.003Z,15.50
2019-06-27T13:44:59.991Z,7.12
2019-06-27T13:47:30.812Z,7.55
2019-06-27T13:50:01.063Z,6.67
2019-06-27T13:52:31.336Z,7.83
2019-06-27T13:55:02.329Z,5.42
2019-06-27T13:57:33.748Z,4.05
2019-06-27T14:00:05.397Z,4.37
2019-06-27T14:02:35.707Z,16.20
2019-06-27T14:05:06.505Z,5.62
2019-06-27T14:07:36.910Z,5.75
2019-06-27T14:10:08.738Z,2.80
2019-06-27T14:12:39.022Z,4.83
2019-06-27T14:15:09.629Z,3.62
2019-06-27T14:17:39.738Z,5.22
2019-06-27T14:20:10.941Z,6.25
2019-06-27T14:22:41.580Z,8.78
2019-06-27T14:25:11.970Z,7.78
2019-06-27T14:27:43.292Z,11.18
2019-06-27T14:30:14.130Z,6.87
2019-06-27T14:32:44.521Z,8.98
2019-06-27T14:35:16.450Z,7.67
2019-06-27T14:37:46.996Z,24.27
2019-06-27T14:40:17.551Z,6.30
2019-06-27T14:42:47.790Z,4.65
2019-06-27T14:45:18.301Z,5.05
2019-06-27T14:47:48.652Z,13.30
2019-06-27T14:50:18.954Z,5.83
2019-06-27T14:52:49.280Z,7.97
2019-06-27T14:55:20.687Z,6.37
2019-06-27T14:57:51.015Z,10.80
2019-06-27T15:00:21.522Z,5.92
2019-06-27T15:02:51.671Z,6.17
2019-06-27T15:05:32.552Z,13.62
2019-06-27T15:07:54.813Z,10.88
2019-06-27T15:10:25.145Z,7.15
2019-06-27T15:12:57.619Z,12.65
2019-06-27T15:15:28.529Z,9.98
2019-06-27T15:17:58.812Z,6.67
2019-06-27T15:20:29.142Z,7.67
2019-06-27T15:22:59.314Z,9.33
2019-06-27T15:25:29.935Z,8.60
2019-06-27T15:28:00.398Z,8.13
2019-06-27T15:30:30.828Z,4.37
2019-06-27T15:33:01.489Z,10.63
2019-06-27T15:35:33.754Z,3.92
2019-06-27T15:38:04.754Z,61.45
2019-06-27T15:40:35.612Z,9.68
2019-06-27T15:43:06.724Z,6.90
2019-06-27T15:45:36.988Z,3.87
2019-06-27T15:48:07.148Z,12.03
2019-06-27T15:50:43.994Z,19.23
2019-06-27T15:53:15.105Z,13.10
2019-06-27T15:55:45.237Z,21.97
2019-06-27T15:58:15.464Z,10.08
2019-06-27T16:00:45.709Z,24.72
2019-06-27T16:03:16.826Z,17.92
2019-06-27T16:05:47.636Z,8.85
2019-06-27T16:08:17.809Z,19.95
2019-06-27T16:10:49.628Z,9.83
2019-06-27T16:13:20.029Z,9.43
2019-06-27T16:15:50.757Z,6.35
2019-06-27T16:18:20.940Z,13.93
2019-06-27T16:20:51.385Z,8.25
2019-06-27T16:23:23.969Z,4.20
2019-06-27T16:25:55.914Z,3.37
2019-06-27T16:28:27.325Z,10.10
2019-06-27T16:30:57.998Z,3.42
2019-06-27T16:33:28.297Z,5.42
2019-06-27T16:35:58.865Z,4.55
2019-06-27T16:38:29.077Z,13.00
2019-06-27T16:40:59.474Z,2.70
2019-06-27T16:43:29.855Z,3.87
2019-06-27T16:46:01.217Z,8.43
2019-06-27T16:48:32.090Z,6.35
2019-06-27T16:51:03.397Z,6.87
2019-06-27T16:53:33.654Z,6.05
2019-06-27T16:56:04.030Z,14.40
2019-06-27T16:58:34.334Z,13.18
2019-06-27T17:01:06.569Z,3.72
2019-06-27T17:03:37.815Z,5.50
2019-06-27T17:06:08.433Z,7.85
2019-06-27T17:08:38.583Z,8.70
2019-06-27T17:11:08.980Z,12.28
2019-06-27T17:13:40.473Z,9.85
2019-06-27T17:16:10.649Z,10.68
2019-06-27T17:18:41.020Z,20.12
2019-06-27T17:21:11.329Z,15.85
2019-06-27T17:23:41.509Z,7.28
2019-06-27T17:26:12.173Z,15.43
2019-06-27T17:28:42.816Z,7.00
2019-06-27T17:31:13.068Z,9.50
2019-06-27T17:33:44.509Z,30.35
2019-06-27T17:36:14.924Z,8.08
2019-06-27T17:38:45.160Z,12.70
2019-06-27T17:41:15.537Z,8.95
2019-06-27T17:43:45.865Z,10.05
2019-06-27T17:46:16.413Z,13.58
2019-06-27T17:48:46.850Z,11.93
2019-06-27T17:51:17.248Z,20.25
2019-06-27T17:53:47.721Z,11.00
2019-06-27T17:56:19.117Z,12.82
2019-06-27T17:58:49.914Z,12.40
2019-06-27T18:01:20.057Z,8.85
2019-06-27T18:03:50.215Z,12.78
2019-06-27T18:06:20.623Z,5.08
2019-06-27T18:08:50.753Z,18.98
2019-06-27T18:11:21.240Z,13.18
2019-06-27T18:13:51.817Z,34.33
2019-06-27T18:16:23.015Z,23.42
2019-06-27T18:18:53.336Z,19.33
2019-06-27T18:21:23.662Z,25.07
2019-06-27T18:23:57.114Z,10.07
2019-06-27T18:26:27.510Z,17.93
2019-06-27T18:28:57.678Z,23.13
2019-06-27T18:31:27.948Z,12.00
2019-06-27T18:33:58.073Z,21.73
2019-06-27T18:36:28.361Z,15.90
2019-06-27T18:38:58.501Z,13.13
2019-06-27T18:41:29.677Z,14.70
2019-06-27T18:44:00.439Z,29.63
2019-06-27T18:46:31.275Z,23.27
2019-06-27T18:49:02.022Z,29.67
2019-06-27T18:51:32.900Z,18.37
2019-06-27T18:54:02.995Z,31.50
2019-06-27T18:56:33.444Z,36.27
2019-06-27T18:59:03.853Z,36.77
2019-06-27T19:01:34.732Z,27.60
2019-06-27T19:04:05.505Z,26.27
2019-06-27T19:06:36.048Z,28.53
2019-06-27T19:09:07.137Z,14.20
2019-06-27T19:11:37.464Z,6.30
2019-06-27T19:14:08.555Z,14.43
2019-06-27T19:16:38.773Z,13.50
2019-06-27T19:19:10.653Z,18.93
2019-06-27T19:22:11.977Z,23.73
2019-06-27T19:24:51.225Z,21.50
2019-06-27T19:27:21.762Z,8.93
2019-06-27T19:29:53.526Z,16.27
2019-06-27T19:32:24.858Z,13.80
2019-06-27T19:34:59.491Z,18.03
2019-06-27T19:37:31.896Z,18.40
2019-06-27T19:40:04.182Z,17.27
2019-06-27T19:42:35.978Z,36.73
2019-06-27T19:45:08.104Z,20.53
2019-06-27T19:47:39.512Z,17.40
2019-06-27T19:50:10.812Z,17.63
2019-06-27T19:52:41.434Z,17.77
2019-06-27T19:55:12.264Z,10.23
2019-06-27T19:57:42.697Z,19.00
2019-06-27T20:00:13.956Z,15.70
2019-06-27T20:02:46.185Z,10.60
2019-06-27T20:05:17.065Z,23.87
2019-06-27T20:07:47.884Z,12.53
2019-06-27T20:10:19.415Z,12.23
2019-06-27T20:12:50.066Z,23.10
2019-06-27T20:15:20.341Z,18.20
2019-06-27T20:17:50.919Z,10.17
2019-06-27T20:20:21.812Z,30.67
2019-06-27T20:22:52.605Z,85.57
2019-06-27T20:25:23.505Z,22.57
2019-06-27T20:27:53.774Z,22.53
2019-06-27T20:30:24.208Z,114.30
2019-06-27T20:32:55.066Z,88.23
2019-06-27T20:35:25.365Z,49.17
2019-06-27T20:37:56.352Z,33.87
2019-06-27T20:40:27.594Z,45.20
2019-06-27T20:42:58.048Z,36.10
2019-06-27T20:45:29.016Z,36.17
2019-06-27T20:47:59.608Z,48.70
2019-06-27T20:50:30.307Z,20.67
2019-06-27T20:53:01.594Z,27.50
2019-06-27T20:55:32.906Z,33.33
2019-06-27T20:58:03.253Z,29.97
2019-06-27T21:00:34.973Z,26.33
2019-06-27T21:03:06.324Z,29.37
2019-06-27T21:05:36.893Z,40.90
2019-06-27T21:08:07.336Z,48.00
2019-06-27T21:10:38.233Z,25.20
2019-06-27T21:13:08.869Z,47.80
2019-06-27T21:15:41.204Z,21.53
2019-06-27T21:18:14.540Z,43.63
2019-06-27T21:20:52.953Z,27.00
2019-06-27T21:23:26.424Z,18.33
2019-06-27T21:25:57.284Z,11.53
2019-06-27T21:28:40.041Z,19.63
2019-06-27T21:31:10.497Z,25.97
2019-06-27T21:33:41.294Z,19.00
2019-06-27T21:36:12.369Z,18.67
2019-06-27T21:38:42.889Z,22.30
2019-06-27T21:41:13.729Z,29.23
2019-06-27T21:43:43.932Z,84.30
2019-06-27T21:46:17.803Z,35.93
2019-06-27T21:48:49.866Z,34.63
2019-06-27T21:51:20.162Z,36.93
2019-06-27T21:53:53.764Z,52.23
2019-06-27T21:56:30.521Z,39.47
2019-06-27T21:59:01.131Z,15.20
2019-06-27T22:01:36.934Z,48.47
2019-06-27T22:04:05.755Z,100.60
2019-06-27T22:06:39.160Z,82.27
2019-06-27T22:09:24.077Z,16.73
2019-06-27T22:11:43.578Z,44.53
2019-06-27T22:14:14.588Z,61.40
2019-06-27T22:16:44.834Z,32.47
2019-06-27T22:19:15.209Z,24.63
2019-06-27T22:21:45.825Z,80.43
2019-06-27T22:24:16.291Z,105.83
2019-06-27T22:26:47.239Z,88.83
2019-06-27T22:29:18.249Z,89.63
2019-06-27T22:31:48.959Z,74.07
2019-06-27T22:34:19.318Z,62.50
2019-06-27T22:36:49.580Z,129.23
2019-06-27T22:39:40.724Z,161.27
2019-06-27T22:42:26.495Z,168.70
2019-06-27T22:45:14.740Z,110.60
2019-06-27T22:48:02.483Z,126.70
2019-06-27T22:50:58.726Z,20.90
2019-06-27T22:53:31.889Z,13.70
2019-06-27T22:56:02.566Z,26.20
2019-06-27T22:58:32.838Z,8.60
2019-06-27T23:01:04.551Z,20.27
2019-06-27T23:03:35.442Z,33.73
2019-06-27T23:06:06.416Z,79.63
2019-06-27T23:08:36.753Z,63.20
2019-06-27T23:11:07.014Z,61.17
2019-06-27T23:13:37.591Z,15.23
2019-06-27T23:16:08.605Z,9.43
2019-06-27T23:18:39.116Z,8.23
2019-06-27T23:21:09.854Z,45.63
2019-06-27T23:23:45.289Z,48.80
2019-06-27T23:26:16.852Z,45.67
2019-06-27T23:28:47.178Z,6.87
2019-06-27T23:31:17.565Z,20.77
2019-06-27T23:33:51.158Z,22.43
2019-06-27T23:36:21.430Z,38.97
2019-06-27T23:38:51.841Z,98.43
2019-06-27T23:41:22.106Z,27.03
2019-06-27T23:43:52.263Z,23.53
2019-06-27T23:46:42.591Z,89.57
2019-06-27T23:49:13.352Z,30.93
2019-06-27T23:51:44.667Z,18.57
2019-06-27T23:54:14.952Z,16.63
2019-06-27T23:56:45.244Z,16.10
2019-06-27T23:59:15.391Z,9.03
